<?xml version="1.0" encoding="UTF-8" standalone="no" ?>
<gpx xmlns="http://www.topografix.com/GPX/1/1" xmlns:xsi="http://www.w3.org/2001/XMLSchema-instance" xsi:schemaLocation="http://www.topografix.com/GPX/1/1 http://www.topografix.com/GPX/1/1/gpx.xsd" version="1.1" creator="VisuGPX - https://www.visugpx.com">
  <metadata>
    <name>DH Plateau des Petites Roches</name>
  </metadata>
  <wpt lat="45.31652" lon="5.89215">
    <ele>909.4</ele>
  </wpt>
  <wpt lat="45.31652" lon="5.89215">
    <ele>909.4</ele>
  </wpt>
  <trk>
    <name><![CDATA[14481632-Tour des Dioux VTT]]></name>
    <extensions>
      <line xmlns="http://www.topografix.com/GPX/gpx_style/0/2">
        <color>880088</color>
        <width>4</width>
      </line>
    </extensions>
    <trkseg>
      <trkpt lat="45.31233" lon="5.88669">
        <ele>963</ele>
        <time>2022-03-29T06:37:30Z</time>
      </trkpt>
      <trkpt lat="45.31251" lon="5.88745">
        <ele>955</ele>
        <time>2022-03-29T06:37:43Z</time>
      </trkpt>
      <trkpt lat="45.30959" lon="5.88694">
        <ele>968</ele>
        <time>2022-03-29T06:38:52Z</time>
      </trkpt>
      <trkpt lat="45.31106" lon="5.89091">
        <ele>965</ele>
        <time>2022-03-29T06:40:06Z</time>
      </trkpt>
      <trkpt lat="45.31091" lon="5.89384">
        <ele>960</ele>
        <time>2022-03-29T06:40:54Z</time>
      </trkpt>
      <trkpt lat="45.31124" lon="5.89658">
        <ele>953</ele>
        <time>2022-03-29T06:41:39Z</time>
      </trkpt>
      <trkpt lat="45.3121" lon="5.89947">
        <ele>961</ele>
        <time>2022-03-29T06:42:31Z</time>
      </trkpt>
      <trkpt lat="45.31281" lon="5.90098">
        <ele>955</ele>
        <time>2022-03-29T06:43:01Z</time>
      </trkpt>
      <trkpt lat="45.3137" lon="5.90044">
        <ele>956</ele>
        <time>2022-03-29T06:43:23Z</time>
      </trkpt>
      <trkpt lat="45.31398" lon="5.90196">
        <ele>947</ele>
        <time>2022-03-29T06:43:49Z</time>
      </trkpt>
      <trkpt lat="45.31446" lon="5.90116">
        <ele>950</ele>
        <time>2022-03-29T06:44:07Z</time>
      </trkpt>
      <trkpt lat="45.31482" lon="5.9025">
        <ele>951</ele>
        <time>2022-03-29T06:44:30Z</time>
      </trkpt>
      <trkpt lat="45.31509" lon="5.90131">
        <ele>942</ele>
        <time>2022-03-29T06:44:51Z</time>
      </trkpt>
      <trkpt lat="45.31553" lon="5.90246">
        <ele>940</ele>
        <time>2022-03-29T06:45:12Z</time>
      </trkpt>
      <trkpt lat="45.31583" lon="5.90131">
        <ele>930</ele>
        <time>2022-03-29T06:45:32Z</time>
      </trkpt>
      <trkpt lat="45.31631" lon="5.90275">
        <ele>923</ele>
        <time>2022-03-29T06:45:58Z</time>
      </trkpt>
      <trkpt lat="45.31649" lon="5.90354">
        <ele>918</ele>
        <time>2022-03-29T06:46:12Z</time>
      </trkpt>
      <trkpt lat="45.31667" lon="5.90416">
        <ele>914</ele>
        <time>2022-03-29T06:46:23Z</time>
      </trkpt>
      <trkpt lat="45.31685" lon="5.90484">
        <ele>902</ele>
        <time>2022-03-29T06:46:35Z</time>
      </trkpt>
      <trkpt lat="45.31707" lon="5.9034">
        <ele>917</ele>
        <time>2022-03-29T06:46:59Z</time>
      </trkpt>
      <trkpt lat="45.31768" lon="5.90477">
        <ele>914</ele>
        <time>2022-03-29T06:47:26Z</time>
      </trkpt>
      <trkpt lat="45.31756" lon="5.9034">
        <ele>910</ele>
        <time>2022-03-29T06:47:48Z</time>
      </trkpt>
      <trkpt lat="45.31804" lon="5.90499">
        <ele>904</ele>
        <time>2022-03-29T06:48:17Z</time>
      </trkpt>
      <trkpt lat="45.31781" lon="5.90365">
        <ele>907</ele>
        <time>2022-03-29T06:48:40Z</time>
      </trkpt>
      <trkpt lat="45.31766" lon="5.90293">
        <ele>904</ele>
        <time>2022-03-29T06:48:52Z</time>
      </trkpt>
      <trkpt lat="45.3172" lon="5.9012">
        <ele>907</ele>
        <time>2022-03-29T06:49:22Z</time>
      </trkpt>
      <trkpt lat="45.31654" lon="5.89918">
        <ele>898</ele>
        <time>2022-03-29T06:49:59Z</time>
      </trkpt>
      <trkpt lat="45.31712" lon="5.89716">
        <ele>899</ele>
        <time>2022-03-29T06:50:35Z</time>
      </trkpt>
      <trkpt lat="45.31695" lon="5.89867">
        <ele>892</ele>
        <time>2022-03-29T06:51:00Z</time>
      </trkpt>
      <trkpt lat="45.31771" lon="5.9004">
        <ele>894</ele>
        <time>2022-03-29T06:51:33Z</time>
      </trkpt>
      <trkpt lat="45.31778" lon="5.8995">
        <ele>883</ele>
        <time>2022-03-29T06:51:48Z</time>
      </trkpt>
      <trkpt lat="45.31766" lon="5.89867">
        <ele>877</ele>
        <time>2022-03-29T06:52:02Z</time>
      </trkpt>
      <trkpt lat="45.31751" lon="5.89763">
        <ele>880</ele>
        <time>2022-03-29T06:52:19Z</time>
      </trkpt>
      <trkpt lat="45.31766" lon="5.89654">
        <ele>889</ele>
        <time>2022-03-29T06:52:38Z</time>
      </trkpt>
      <trkpt lat="45.31794" lon="5.89582">
        <ele>882</ele>
        <time>2022-03-29T06:52:51Z</time>
      </trkpt>
      <trkpt lat="45.31789" lon="5.89759">
        <ele>871</ele>
        <time>2022-03-29T06:53:20Z</time>
      </trkpt>
      <trkpt lat="45.31804" lon="5.89867">
        <ele>870</ele>
        <time>2022-03-29T06:53:38Z</time>
      </trkpt>
      <trkpt lat="45.31824" lon="5.89979">
        <ele>877</ele>
        <time>2022-03-29T06:53:57Z</time>
      </trkpt>
      <trkpt lat="45.31829" lon="5.89676">
        <ele>865</ele>
        <time>2022-03-29T06:54:47Z</time>
      </trkpt>
      <trkpt lat="45.31867" lon="5.89846">
        <ele>851</ele>
        <time>2022-03-29T06:55:16Z</time>
      </trkpt>
      <trkpt lat="45.31885" lon="5.89705">
        <ele>850</ele>
        <time>2022-03-29T06:55:40Z</time>
      </trkpt>
      <trkpt lat="45.31971" lon="5.89831">
        <ele>829</ele>
        <time>2022-03-29T06:56:09Z</time>
      </trkpt>
      <trkpt lat="45.32025" lon="5.8995">
        <ele>815</ele>
        <time>2022-03-29T06:56:32Z</time>
      </trkpt>
      <trkpt lat="45.3206" lon="5.90066">
        <ele>804</ele>
        <time>2022-03-29T06:56:53Z</time>
      </trkpt>
      <trkpt lat="45.32101" lon="5.90178">
        <ele>790</ele>
        <time>2022-03-29T06:57:14Z</time>
      </trkpt>
      <trkpt lat="45.32091" lon="5.90044">
        <ele>806</ele>
        <time>2022-03-29T06:57:36Z</time>
      </trkpt>
      <trkpt lat="45.32154" lon="5.90156">
        <ele>799</ele>
        <time>2022-03-29T06:57:59Z</time>
      </trkpt>
      <trkpt lat="45.32134" lon="5.9003">
        <ele>821</ele>
        <time>2022-03-29T06:58:20Z</time>
      </trkpt>
      <trkpt lat="45.32131" lon="5.89939">
        <ele>836</ele>
        <time>2022-03-29T06:58:35Z</time>
      </trkpt>
      <trkpt lat="45.32212" lon="5.90134">
        <ele>820</ele>
        <time>2022-03-29T06:59:13Z</time>
      </trkpt>
      <trkpt lat="45.32174" lon="5.89932">
        <ele>850</ele>
        <time>2022-03-29T06:59:47Z</time>
      </trkpt>
      <trkpt lat="45.32324" lon="5.90087">
        <ele>864</ele>
        <time>2022-03-29T07:00:30Z</time>
      </trkpt>
      <trkpt lat="45.32431" lon="5.89744">
        <ele>921</ele>
        <time>2022-03-29T07:01:32Z</time>
      </trkpt>
      <trkpt lat="45.32469" lon="5.89693">
        <ele>928</ele>
        <time>2022-03-29T07:01:44Z</time>
      </trkpt>
      <trkpt lat="45.32026" lon="5.89186">
        <ele>948</ele>
        <time>2022-03-29T07:03:57Z</time>
      </trkpt>
      <trkpt lat="45.319" lon="5.89114">
        <ele>945</ele>
        <time>2022-03-29T07:04:29Z</time>
      </trkpt>
      <trkpt lat="45.31902" lon="5.88989">
        <ele>949</ele>
        <time>2022-03-29T07:04:49Z</time>
      </trkpt>
      <trkpt lat="45.31654" lon="5.88807">
        <ele>952</ele>
        <time>2022-03-29T07:05:54Z</time>
      </trkpt>
      <trkpt lat="45.31301" lon="5.88748">
        <ele>953</ele>
        <time>2022-03-29T07:07:17Z</time>
      </trkpt>
    </trkseg>
  </trk>
</gpx>